Time;durP1;ratioP1;P1;durP2;ratioP2;P2;SDS_P1;SDS_P2;PMS_P1;PMS_P2;Temp;Humidity;BMP_temperature;BMP_pressure;BME280_temperature;BME280_humidity;BME280_pressure;Samples;Min_cycle;Max_cycle;Signal;HPM_P1;HPM_P2
2022/04/04 00:01:26;;;;;;;58.97;20.88;;;;;;;;;;6264502;28;20461;-69
2022/04/04 00:04:27;;;;;;;63.05;20.95;;;;;;;;;;6262803;28;20045;-62
2022/04/04 00:07:28;;;;;;;60.55;21.85;;;;;;;;;;6256963;28;20049;-69
2022/04/04 00:10:28;;;;;;;58.42;22.40;;;;;;;;;;6263065;28;20049;-67
2022/04/04 00:13:29;;;;;;;64.18;22.85;;;;;;;;;;6259375;28;20045;-68
2022/04/04 00:16:32;;;;;;;64.35;22.73;;;;;;;;;;6259787;28;20045;-61
2022/04/04 00:19:33;;;;;;;70.97;23.33;;;;;;;;;;6267337;28;20045;-67
2022/04/04 00:22:34;;;;;;;62.53;22.95;;;;;;;;;;6266383;28;20408;-67
2022/04/04 00:25:34;;;;;;;64.22;23.48;;;;;;;;;;6267946;28;20091;-66
2022/04/04 00:28:35;;;;;;;64.32;24.17;;;;;;;;;;6266581;28;20048;-69
2022/04/04 00:31:36;;;;;;;62.33;24.83;;;;;;;;;;6262474;28;20484;-69
2022/04/04 00:34:37;;;;;;;65.75;24.05;;;;;;;;;;6264581;28;20052;-64
2022/04/04 00:37:37;;;;;;;61.88;23.77;;;;;;;;;;6267022;28;20598;-69
2022/04/04 00:40:38;;;;;;;63.67;23.60;;;;;;;;;;6265688;28;20230;-69
2022/04/04 00:43:39;;;;;;;56.15;22.10;;;;;;;;;;6263922;28;20132;-68
2022/04/04 00:46:41;;;;;;;56.38;21.58;;;;;;;;;;6264811;28;20056;-68
2022/04/04 00:49:42;;;;;;;54.70;21.75;;;;;;;;;;6266033;28;20077;-65
2022/04/04 00:52:43;;;;;;;59.30;21.67;;;;;;;;;;6263750;28;20052;-66
2022/04/04 00:55:44;;;;;;;53.53;19.88;;;;;;;;;;6265938;28;20091;-68
2022/04/04 00:58:44;;;;;;;48.95;19.75;;;;;;;;;;6265823;28;20056;-64
2022/04/04 01:01:45;;;;;;;50.08;19.92;;;;;;;;;;6264646;28;20531;-69
2022/04/04 01:04:46;;;;;;;51.42;20.98;;;;;;;;;;6264694;28;20063;-68
2022/04/04 01:07:46;;;;;;;50.58;21.05;;;;;;;;;;6263537;28;20093;-63
2022/04/04 01:10:47;;;;;;;46.47;21.33;;;;;;;;;;6264206;28;20040;-70
2022/04/04 01:13:49;;;;;;;49.90;19.85;;;;;;;;;;6264254;28;20484;-64
2022/04/04 01:16:50;;;;;;;47.38;19.02;;;;;;;;;;6265496;28;20524;-67
2022/04/04 01:19:51;;;;;;;40.38;18.40;;;;;;;;;;6265672;28;20140;-67
2022/04/04 01:22:51;;;;;;;46.13;18.67;;;;;;;;;;6260482;28;20401;-63
2022/04/04 01:25:52;;;;;;;46.88;18.20;;;;;;;;;;6263687;28;20040;-63
2022/04/04 01:28:52;;;;;;;38.63;17.08;;;;;;;;;;6263997;28;20052;-69
2022/04/04 01:31:54;;;;;;;44.47;16.65;;;;;;;;;;6260096;28;20040;-63
2022/04/04 01:34:55;;;;;;;45.67;17.88;;;;;;;;;;6264266;28;20115;-68
2022/04/04 01:37:55;;;;;;;41.40;17.50;;;;;;;;;;6263735;28;20158;-70
2022/04/04 01:40:56;;;;;;;47.38;18.13;;;;;;;;;;6264383;28;20059;-66
2022/04/04 01:43:57;;;;;;;41.08;17.17;;;;;;;;;;6264605;28;20190;-64
2022/04/04 01:46:58;;;;;;;41.10;16.33;;;;;;;;;;6265037;28;20135;-64
2022/04/04 01:49:59;;;;;;;38.38;16.88;;;;;;;;;;6262669;28;20843;-65
2022/04/04 01:53:25;;;;;;;36.95;17.05;;;;;;;;;;6264615;28;20045;-70
2022/04/04 01:56:21;;;;;;;38.97;16.38;;;;;;;;;;6259975;28;20137;-68
2022/04/04 01:59:22;;;;;;;38.80;16.80;;;;;;;;;;6266062;28;20654;-71
2022/04/04 02:02:22;;;;;;;39.13;15.75;;;;;;;;;;6265730;28;20055;-68
2022/04/04 02:05:23;;;;;;;42.15;15.65;;;;;;;;;;6262900;28;20563;-63
2022/04/04 02:08:24;;;;;;;38.15;15.98;;;;;;;;;;6263545;28;20307;-64
2022/04/04 02:11:25;;;;;;;36.38;15.43;;;;;;;;;;6263098;28;20052;-69
2022/04/04 02:14:25;;;;;;;31.25;14.65;;;;;;;;;;6262655;28;20045;-69
2022/04/04 02:17:26;;;;;;;39.65;14.95;;;;;;;;;;6263715;28;20044;-69
2022/04/04 02:20:26;;;;;;;35.38;14.13;;;;;;;;;;6264144;28;20128;-69
2022/04/04 02:23:28;;;;;;;38.40;14.63;;;;;;;;;;6261879;28;20049;-63
2022/04/04 02:26:29;;;;;;;38.53;15.00;;;;;;;;;;6264032;28;20144;-70
2022/04/04 02:29:29;;;;;;;38.28;14.93;;;;;;;;;;6261698;28;20044;-67
2022/04/04 02:32:31;;;;;;;38.15;13.65;;;;;;;;;;6263260;28;20051;-65
2022/04/04 02:35:32;;;;;;;32.40;14.13;;;;;;;;;;6264177;28;20057;-67
2022/04/04 02:38:33;;;;;;;32.75;14.77;;;;;;;;;;6265166;28;20101;-67
2022/04/04 02:41:34;;;;;;;32.63;14.35;;;;;;;;;;6264266;28;20048;-68
2022/04/04 02:44:35;;;;;;;35.58;13.65;;;;;;;;;;6263211;28;20049;-68
2022/04/04 02:47:36;;;;;;;30.07;13.53;;;;;;;;;;6263795;28;20476;-67
2022/04/04 02:50:38;;;;;;;29.47;12.47;;;;;;;;;;6264440;28;20052;-63
2022/04/04 02:53:38;;;;;;;36.13;13.00;;;;;;;;;;6263100;28;20524;-68
2022/04/04 02:56:41;;;;;;;32.65;13.43;;;;;;;;;;6265185;28;20049;-66
2022/04/04 02:59:42;;;;;;;31.92;12.88;;;;;;;;;;6254690;28;20037;-66
2022/04/04 03:02:42;;;;;;;29.45;12.20;;;;;;;;;;6262376;28;20128;-61
2022/04/04 03:05:43;;;;;;;32.92;13.40;;;;;;;;;;6263779;28;20037;-69
2022/04/04 03:08:44;;;;;;;29.23;12.38;;;;;;;;;;6263398;28;20205;-67
2022/04/04 03:11:45;;;;;;;33.63;12.80;;;;;;;;;;6261130;28;20053;-70
2022/04/04 03:14:45;;;;;;;31.20;13.25;;;;;;;;;;6261171;28;20084;-65
2022/04/04 03:17:50;;;;;;;28.65;12.40;;;;;;;;;;6262140;28;20048;-68
2022/04/04 03:20:52;;;;;;;34.20;12.25;;;;;;;;;;6262211;28;20122;-69
2022/04/04 03:23:54;;;;;;;30.75;12.25;;;;;;;;;;6259602;28;20166;-64
2022/04/04 03:26:54;;;;;;;31.23;12.23;;;;;;;;;;6262199;28;20580;-67
2022/04/04 03:29:55;;;;;;;25.58;12.80;;;;;;;;;;6261330;28;20053;-64
2022/04/04 03:32:59;;;;;;;34.72;13.52;;;;;;;;;;6250058;28;20160;-68
2022/04/04 03:36:00;;;;;;;25.90;11.88;;;;;;;;;;6262451;28;20053;-67
2022/04/04 03:39:01;;;;;;;29.17;13.10;;;;;;;;;;6261447;28;20141;-69
2022/04/04 03:42:02;;;;;;;36.35;14.15;;;;;;;;;;6262934;28;20048;-69
2022/04/04 03:45:06;;;;;;;35.78;14.10;;;;;;;;;;6264125;28;20496;-65
2022/04/04 03:48:08;;;;;;;39.60;15.07;;;;;;;;;;6267202;28;20049;-69
2022/04/04 03:51:09;;;;;;;27.50;13.57;;;;;;;;;;6265940;28;20073;-68
2022/04/04 03:54:10;;;;;;;35.13;14.32;;;;;;;;;;6264954;28;20420;-63
2022/04/04 03:57:10;;;;;;;35.13;14.07;;;;;;;;;;6267507;28;20133;-67
2022/04/04 04:00:12;;;;;;;29.63;13.52;;;;;;;;;;6266271;28;20056;-68
2022/04/04 04:03:13;;;;;;;33.77;12.73;;;;;;;;;;6263133;28;20052;-65
2022/04/04 04:06:15;;;;;;;28.08;13.48;;;;;;;;;;6266691;28;20056;-69
2022/04/04 04:09:15;;;;;;;32.85;13.60;;;;;;;;;;6266689;28;20048;-67
2022/04/04 04:12:16;;;;;;;31.05;13.55;;;;;;;;;;6263294;28;20056;-66
2022/04/04 04:15:20;;;;;;;32.05;12.82;;;;;;;;;;6262950;28;20109;-64
2022/04/04 04:18:20;;;;;;;35.55;14.93;;;;;;;;;;6266817;28;20045;-66
2022/04/04 04:21:21;;;;;;;31.70;14.70;;;;;;;;;;6265724;28;20135;-65
2022/04/04 04:24:22;;;;;;;33.92;14.18;;;;;;;;;;6264110;28;20106;-67
2022/04/04 04:27:23;;;;;;;32.90;14.95;;;;;;;;;;6267774;28;20052;-69
2022/04/04 04:30:24;;;;;;;33.78;13.95;;;;;;;;;;6265625;28;20503;-67
2022/04/04 04:33:24;;;;;;;30.65;14.32;;;;;;;;;;6267000;28;20060;-65
2022/04/04 04:36:25;;;;;;;32.33;15.43;;;;;;;;;;6267242;28;20057;-69
2022/04/04 04:39:26;;;;;;;33.33;15.15;;;;;;;;;;6264363;28;20044;-69
2022/04/04 04:42:27;;;;;;;42.58;16.08;;;;;;;;;;6264226;28;20056;-71
2022/04/04 04:45:28;;;;;;;35.20;14.95;;;;;;;;;;6265430;28;20518;-68
2022/04/04 04:48:29;;;;;;;38.33;14.77;;;;;;;;;;6264448;28;20045;-67
2022/04/04 04:51:30;;;;;;;33.85;14.32;;;;;;;;;;6264226;28;20191;-69
2022/04/04 04:54:30;;;;;;;39.03;15.68;;;;;;;;;;6264593;28;20415;-61
2022/04/04 04:57:32;;;;;;;35.42;14.60;;;;;;;;;;6265962;28;20631;-62
2022/04/04 05:00:32;;;;;;;31.10;14.53;;;;;;;;;;6266906;28;20075;-70
2022/04/04 05:03:34;;;;;;;34.65;15.50;;;;;;;;;;6261894;28;20045;-67
2022/04/04 05:06:34;;;;;;;36.83;14.00;;;;;;;;;;6263567;28;20041;-63
2022/04/04 05:09:35;;;;;;;35.17;14.82;;;;;;;;;;6266604;28;20543;-62
2022/04/04 05:12:36;;;;;;;35.15;15.55;;;;;;;;;;6260470;28;20543;-66
2022/04/04 05:15:37;;;;;;;31.02;15.07;;;;;;;;;;6264276;28;20076;-71
2022/04/04 05:18:37;;;;;;;37.72;14.68;;;;;;;;;;6262343;28;20049;-67
2022/04/04 05:21:39;;;;;;;30.20;13.80;;;;;;;;;;6263182;28;20128;-70
2022/04/04 05:24:40;;;;;;;27.38;13.32;;;;;;;;;;6260208;28;20053;-65
2022/04/04 05:27:41;;;;;;;26.50;12.27;;;;;;;;;;6261918;28;20590;-66
2022/04/04 05:30:42;;;;;;;32.05;13.60;;;;;;;;;;6267450;28;20135;-64
2022/04/04 05:33:43;;;;;;;30.42;13.50;;;;;;;;;;6266760;28;20156;-67
2022/04/04 05:36:43;;;;;;;32.78;12.07;;;;;;;;;;6260554;28;20053;-60
2022/04/04 05:39:44;;;;;;;26.73;12.40;;;;;;;;;;6262926;28;20131;-64
2022/04/04 05:42:45;;;;;;;28.67;12.50;;;;;;;;;;6261578;28;20060;-67
2022/04/04 05:45:48;;;;;;;27.17;11.05;;;;;;;;;;6265342;28;20068;-55
2022/04/04 05:48:49;;;;;;;28.30;12.07;;;;;;;;;;6255787;28;20075;-63
2022/04/04 05:51:49;;;;;;;27.40;10.82;;;;;;;;;;6255504;28;20037;-67
2022/04/04 05:54:57;;;;;;;25.10;11.85;;;;;;;;;;6255642;28;20047;-66
2022/04/04 05:57:58;;;;;;;26.70;10.98;;;;;;;;;;6259543;28;20450;-63
2022/04/04 06:00:58;;;;;;;22.77;10.55;;;;;;;;;;6264008;28;20048;-67
2022/04/04 06:03:59;;;;;;;24.38;10.55;;;;;;;;;;6256145;28;20051;-67
2022/04/04 06:07:00;;;;;;;22.38;11.38;;;;;;;;;;6264793;28;20049;-62
2022/04/04 06:10:00;;;;;;;27.25;11.15;;;;;;;;;;6261946;28;20045;-65
2022/04/04 06:13:01;;;;;;;27.67;11.20;;;;;;;;;;6258069;28;20055;-61
2022/04/04 06:16:02;;;;;;;26.55;10.80;;;;;;;;;;6261500;28;20155;-68
2022/04/04 06:19:03;;;;;;;24.63;11.48;;;;;;;;;;6257107;28;20094;-69
2022/04/04 06:22:04;;;;;;;26.55;12.63;;;;;;;;;;6260445;28;20053;-66
2022/04/04 06:25:12;;;;;;;23.73;11.93;;;;;;;;;;6259476;28;20613;-66
2022/04/04 06:28:12;;;;;;;23.30;10.93;;;;;;;;;;6260131;28;20127;-68
2022/04/04 06:31:13;;;;;;;25.63;10.73;;;;;;;;;;6261027;28;20067;-64
2022/04/04 06:34:13;;;;;;;29.92;11.75;;;;;;;;;;6252629;28;20595;-65
2022/04/04 06:37:15;;;;;;;27.98;11.63;;;;;;;;;;6260137;28;20830;-66
2022/04/04 06:40:15;;;;;;;29.52;11.88;;;;;;;;;;6256235;28;20069;-68
2022/04/04 06:43:19;;;;;;;23.88;11.27;;;;;;;;;;6259548;28;20041;-64
2022/04/04 06:46:20;;;;;;;25.83;10.48;;;;;;;;;;6262139;28;20048;-65
2022/04/04 06:49:21;;;;;;;27.38;12.45;;;;;;;;;;6255783;28;20068;-69
2022/04/04 06:52:21;;;;;;;24.73;11.48;;;;;;;;;;6261012;28;20110;-65
2022/04/04 06:55:23;;;;;;;24.73;11.50;;;;;;;;;;6254988;28;20496;-68
2022/04/04 06:58:26;;;;;;;28.67;11.80;;;;;;;;;;6256896;28;20037;-71
2022/04/04 07:01:27;;;;;;;27.48;11.88;;;;;;;;;;6257343;28;20053;-72
2022/04/04 07:04:27;;;;;;;25.55;11.63;;;;;;;;;;6259420;28;20076;-71
2022/04/04 07:07:28;;;;;;;26.98;12.25;;;;;;;;;;6261933;28;20136;-69
2022/04/04 07:10:28;;;;;;;29.88;13.60;;;;;;;;;;6259166;28;20045;-66
2022/04/04 07:13:31;;;;;;;29.75;13.90;;;;;;;;;;6261355;28;20045;-68
2022/04/04 07:16:32;;;;;;;;;;;;;;;;;;6252629;28;20563;-70
2022/04/04 07:19:33;;;;;;;25.02;12.32;;;;;;;;;;6262147;28;19951;-69
2022/04/04 07:22:37;;;;;;;29.50;13.55;;;;;;;;;;6267817;28;20131;-68
2022/04/04 07:25:38;;;;;;;27.75;12.48;;;;;;;;;;6263473;28;20495;-66
2022/04/04 07:28:42;;;;;;;30.80;12.82;;;;;;;;;;6262709;28;20048;-68
2022/04/04 07:31:43;;;;;;;30.15;12.82;;;;;;;;;;6264534;28;20040;-69
2022/04/04 07:34:44;;;;;;;32.60;12.77;;;;;;;;;;6265744;28;20455;-67
2022/04/04 07:37:46;;;;;;;26.67;12.85;;;;;;;;;;6261173;28;20059;-66
2022/04/04 07:40:47;;;;;;;;;;;;;;;;;;6261895;28;20061;-66
2022/04/04 07:43:48;;;;;;;28.20;13.05;;;;;;;;;;6251929;28;19921;-65
2022/04/04 07:46:48;;;;;;;30.15;13.43;;;;;;;;;;6260544;28;20121;-65
2022/04/04 07:49:49;;;;;;;31.77;13.45;;;;;;;;;;6263416;28;20053;-65
2022/04/04 07:52:49;;;;;;;34.45;13.85;;;;;;;;;;6259620;28;20050;-66
2022/04/04 07:55:50;;;;;;;27.88;13.50;;;;;;;;;;6263743;28;20045;-66
2022/04/04 07:58:51;;;;;;;33.38;13.75;;;;;;;;;;6259057;28;20536;-66
2022/04/04 08:01:51;;;;;;;28.10;13.05;;;;;;;;;;6255114;28;20678;-68
2022/04/04 08:04:52;;;;;;;30.83;13.20;;;;;;;;;;6261316;28;20044;-67
2022/04/04 08:07:53;;;;;;;47.38;16.85;;;;;;;;;;6262327;28;20048;-62
2022/04/04 08:10:54;;;;;;;31.83;15.18;;;;;;;;;;6265264;28;20037;-69
2022/04/04 08:13:55;;;;;;;31.60;13.82;;;;;;;;;;6264026;28;20056;-60
2022/04/04 08:16:56;;;;;;;33.03;14.20;;;;;;;;;;6263410;28;20124;-61
2022/04/04 08:19:56;;;;;;;28.75;13.25;;;;;;;;;;6263616;28;20079;-69
2022/04/04 08:22:57;;;;;;;31.83;14.02;;;;;;;;;;6264235;28;20767;-65
2022/04/04 08:25:59;;;;;;;26.23;13.25;;;;;;;;;;6263627;28;20049;-67
2022/04/04 08:28:59;;;;;;;35.60;14.13;;;;;;;;;;6258651;28;20042;-68
2022/04/04 08:32:00;;;;;;;35.55;16.65;;;;;;;;;;6261306;28;20408;-68
2022/04/04 08:35:00;;;;;;;27.65;14.63;;;;;;;;;;6265081;28;20072;-65
2022/04/04 08:38:01;;;;;;;30.42;14.27;;;;;;;;;;6258409;28;20707;-66
2022/04/04 08:41:03;;;;;;;31.20;14.07;;;;;;;;;;6263308;28;20828;-65
2022/04/04 08:44:05;;;;;;;32.92;14.95;;;;;;;;;;6258418;28;20694;-65
2022/04/04 08:47:06;;;;;;;29.45;13.20;;;;;;;;;;6262748;28;20068;-66
2022/04/04 08:50:09;;;;;;;30.38;13.48;;;;;;;;;;6265355;28;20107;-64
2022/04/04 08:53:10;;;;;;;30.65;14.30;;;;;;;;;;6264618;28;20559;-65
2022/04/04 08:56:11;;;;;;;28.42;13.07;;;;;;;;;;6265974;28;20138;-65
2022/04/04 08:59:12;;;;;;;27.95;12.73;;;;;;;;;;6254358;28;20054;-67
2022/04/04 09:02:13;;;;;;;31.73;13.68;;;;;;;;;;6261945;28;20048;-67
2022/04/04 09:05:14;;;;;;;30.33;13.20;;;;;;;;;;6264703;28;20053;-68
2022/04/04 09:08:15;;;;;;;25.63;12.27;;;;;;;;;;6263181;28;20060;-69
2022/04/04 09:11:15;;;;;;;27.23;12.90;;;;;;;;;;6252781;28;20660;-69
2022/04/04 09:14:21;;;;;;;28.42;12.63;;;;;;;;;;6258999;28;20043;-68
2022/04/04 09:17:28;;;;;;;23.65;11.57;;;;;;;;;;6259913;28;20049;-62
2022/04/04 09:20:29;;;;;;;39.15;18.77;;;;;;;;;;6261906;28;20037;-68
2022/04/04 09:23:34;;;;;;;28.77;11.73;;;;;;;;;;6258572;28;20120;-67
2022/04/04 09:26:42;;;;;;;28.23;13.52;;;;;;;;;;6256814;28;20065;-64
2022/04/04 09:29:43;;;;;;;27.90;13.30;;;;;;;;;;6259291;28;20090;-65
2022/04/04 09:32:46;;;;;;;26.40;13.75;;;;;;;;;;6258466;28;20080;-69
2022/04/04 09:35:47;;;;;;;26.85;13.23;;;;;;;;;;6255930;28;20044;-67
2022/04/04 09:39:15;;;;;;;24.98;12.18;;;;;;;;;;6260001;28;20057;-69
2022/04/04 09:42:17;;;;;;;29.08;12.48;;;;;;;;;;6262850;28;20059;-66
2022/04/04 09:45:24;;;;;;;31.15;12.85;;;;;;;;;;6258203;28;20049;-70
2022/04/04 09:48:27;;;;;;;30.90;14.15;;;;;;;;;;6258367;28;20077;-66
2022/04/04 09:51:38;;;;;;;26.35;13.20;;;;;;;;;;6252532;28;20491;-64
2022/04/04 09:54:42;;;;;;;22.05;10.93;;;;;;;;;;6252161;28;20040;-66
2022/04/04 09:57:50;;;;;;;30.58;12.95;;;;;;;;;;6259390;28;20107;-67
2022/04/04 10:00:51;;;;;;;29.60;12.63;;;;;;;;;;6247065;28;20140;-68
2022/04/04 10:03:52;;;;;;;24.63;11.43;;;;;;;;;;6258589;28;20069;-67
2022/04/04 10:06:54;;;;;;;25.48;11.45;;;;;;;;;;6254135;28;20049;-67
2022/04/04 10:09:54;;;;;;;26.50;13.68;;;;;;;;;;6259338;28;20041;-64
2022/04/04 10:12:56;;;;;;;27.42;12.98;;;;;;;;;;6262234;28;20144;-63
2022/04/04 10:15:57;;;;;;;;;;;;;;;;;;6256769;28;20519;-68
2022/04/04 10:18:58;;;;;;;32.08;16.33;;;;;;;;;;6262439;28;19921;-68
2022/04/04 10:22:00;;;;;;;24.55;12.20;;;;;;;;;;6263258;28;20045;-65
2022/04/04 10:25:02;;;;;;;31.55;13.55;;;;;;;;;;6246562;28;20095;-65
2022/04/04 10:28:03;;;;;;;31.48;14.70;;;;;;;;;;6250003;28;20080;-68
2022/04/04 10:31:16;;;;;;;29.63;13.23;;;;;;;;;;6252883;28;20579;-65
2022/04/04 10:34:20;;;;;;;26.88;12.95;;;;;;;;;;6245000;28;20049;-60
2022/04/04 10:37:23;;;;;;;30.20;13.98;;;;;;;;;;6256107;28;20056;-66
2022/04/04 10:40:28;;;;;;;23.95;11.65;;;;;;;;;;6256298;28;20534;-66
2022/04/04 10:43:33;;;;;;;26.58;12.75;;;;;;;;;;6249697;28;20045;-68
2022/04/04 10:46:34;;;;;;;32.30;15.70;;;;;;;;;;6256592;28;20056;-68
2022/04/04 10:49:37;;;;;;;25.40;11.73;;;;;;;;;;6249393;28;20463;-66
2022/04/04 10:52:41;;;;;;;37.20;18.08;;;;;;;;;;6256807;28;20049;-66
2022/04/04 10:55:44;;;;;;;23.38;12.07;;;;;;;;;;6256255;28;20087;-67
2022/04/04 10:58:46;;;;;;;23.67;10.60;;;;;;;;;;6256778;28;20471;-68
2022/04/04 11:02:06;;;;;;;21.40;10.87;;;;;;;;;;6255565;28;20080;-64
2022/04/04 11:08:38;;;;;;;21.52;11.25;;;;;;;;;;6261511;28;20045;-68
2022/04/04 11:11:44;;;;;;;21.05;10.75;;;;;;;;;;6260413;28;20080;-65
2022/04/04 11:14:54;;;;;;;22.45;11.30;;;;;;;;;;6257290;28;20057;-67
2022/04/04 11:17:57;;;;;;;25.85;12.43;;;;;;;;;;6263222;28;20068;-64
2022/04/04 11:21:00;;;;;;;22.80;11.55;;;;;;;;;;6261452;28;20056;-68
2022/04/04 11:24:07;;;;;;;22.65;11.98;;;;;;;;;;6263501;28;20052;-68
2022/04/04 11:27:08;;;;;;;22.65;11.57;;;;;;;;;;6264773;28;20053;-68
2022/04/04 11:30:11;;;;;;;21.30;11.77;;;;;;;;;;6257052;28;20073;-69
2022/04/04 11:33:17;;;;;;;27.25;13.05;;;;;;;;;;6258921;28;20313;-67
2022/04/04 11:36:25;;;;;;;30.63;13.73;;;;;;;;;;6260791;28;20139;-66
2022/04/04 11:39:25;;;;;;;23.13;13.02;;;;;;;;;;6258551;28;20519;-69
2022/04/04 11:42:29;;;;;;;25.40;13.73;;;;;;;;;;6262758;28;20049;-65
2022/04/04 11:45:36;;;;;;;26.02;13.25;;;;;;;;;;6259318;28;20052;-64
2022/04/04 11:48:48;;;;;;;25.40;13.88;;;;;;;;;;6257178;28;20060;-65
2022/04/04 11:51:48;;;;;;;26.30;14.13;;;;;;;;;;6263175;28;20045;-61
2022/04/04 11:54:50;;;;;;;29.33;15.32;;;;;;;;;;6259399;28;20060;-63
2022/04/04 11:57:57;;;;;;;34.73;19.47;;;;;;;;;;6262140;28;20041;-66
2022/04/04 12:01:04;;;;;;;26.10;13.88;;;;;;;;;;6262617;28;20044;-62
2022/04/04 12:04:07;;;;;;;23.10;12.40;;;;;;;;;;6262959;28;20049;-65
2022/04/04 12:07:09;;;;;;;23.48;13.20;;;;;;;;;;6254194;28;20424;-61
2022/04/04 12:10:11;;;;;;;27.48;14.07;;;;;;;;;;6259873;28;20397;-66
2022/04/04 12:13:18;;;;;;;;;;;;;;;;;;6260858;28;20443;-66
2022/04/04 12:16:18;;;;;;;27.20;13.02;;;;;;;;;;6260432;28;19925;-64
2022/04/04 12:19:19;;;;;;;28.60;15.88;;;;;;;;;;6255737;28;20056;-65
2022/04/04 12:25:39;;;;;;;24.25;14.30;;;;;;;;;;6251255;28;20041;-64
2022/04/04 12:28:49;;;;;;;28.75;14.45;;;;;;;;;;6253948;28;20504;-63
2022/04/04 12:31:54;;;;;;;24.02;13.23;;;;;;;;;;6259475;28;20515;-65
2022/04/04 12:35:06;;;;;;;22.73;11.82;;;;;;;;;;6261043;28;20053;-64
2022/04/04 12:38:08;;;;;;;19.43;10.90;;;;;;;;;;6253795;28;20166;-65
2022/04/04 12:41:16;;;;;;;21.75;11.48;;;;;;;;;;6260260;28;20121;-63
2022/04/04 12:44:21;;;;;;;19.67;11.30;;;;;;;;;;6260127;28;20815;-63
2022/04/04 12:47:21;;;;;;;20.88;11.65;;;;;;;;;;6257528;28;20132;-62
2022/04/04 12:50:24;;;;;;;21.67;11.82;;;;;;;;;;6252250;28;20069;-63
2022/04/04 12:53:26;;;;;;;23.08;11.52;;;;;;;;;;6260879;28;20515;-64
2022/04/04 12:56:46;;;;;;;24.08;13.20;;;;;;;;;;6260634;28;20076;-66
2022/04/04 12:59:51;;;;;;;23.13;12.20;;;;;;;;;;6254680;28;20264;-61
2022/04/04 13:02:52;;;;;;;21.48;12.85;;;;;;;;;;6260317;28;20092;-66
2022/04/04 13:05:58;;;;;;;21.08;12.23;;;;;;;;;;6256092;28;20048;-66
2022/04/04 13:09:01;;;;;;;23.05;11.60;;;;;;;;;;6258071;28;20132;-65
2022/04/04 13:12:02;;;;;;;20.55;11.48;;;;;;;;;;6259802;28;20049;-60
2022/04/04 13:15:04;;;;;;;25.80;10.83;;;;;;;;;;6257158;28;20084;-66
2022/04/04 13:18:04;;;;;;;19.48;11.27;;;;;;;;;;6257930;28;20301;-66
2022/04/04 13:21:06;;;;;;;21.77;11.52;;;;;;;;;;6259723;28;20052;-66
2022/04/04 13:24:07;;;;;;;25.45;13.02;;;;;;;;;;6254564;28;20086;-67
2022/04/04 13:27:08;;;;;;;24.90;14.63;;;;;;;;;;6264055;28;20071;-68
2022/04/04 13:30:10;;;;;;;24.42;12.70;;;;;;;;;;6262821;28;20380;-63
2022/04/04 13:33:10;;;;;;;23.83;14.00;;;;;;;;;;6254802;28;20449;-66
2022/04/04 13:36:12;;;;;;;25.33;12.63;;;;;;;;;;6257777;28;20139;-66
2022/04/04 13:39:12;;;;;;;21.50;12.23;;;;;;;;;;6248198;28;20615;-67
2022/04/04 13:42:15;;;;;;;24.85;13.10;;;;;;;;;;6258521;28;20475;-64
2022/04/04 13:45:16;;;;;;;24.63;14.27;;;;;;;;;;6256826;28;20077;-65
2022/04/04 13:48:18;;;;;;;21.40;13.10;;;;;;;;;;6260259;28;20685;-67
2022/04/04 13:51:22;;;;;;;26.27;14.30;;;;;;;;;;6263278;28;20139;-62
2022/04/04 13:54:23;;;;;;;22.25;12.73;;;;;;;;;;6252159;28;20057;-68
2022/04/04 13:57:23;;;;;;;24.58;12.75;;;;;;;;;;6262193;28;20404;-63
2022/04/04 14:00:24;;;;;;;25.25;11.93;;;;;;;;;;6261107;28;20041;-68
2022/04/04 14:03:25;;;;;;;27.30;12.82;;;;;;;;;;6262294;28;20120;-65
2022/04/04 14:06:25;;;;;;;48.05;19.52;;;;;;;;;;6262413;28;20059;-68
2022/04/04 14:09:26;;;;;;;20.55;11.23;;;;;;;;;;6252683;28;20052;-66
2022/04/04 14:12:26;;;;;;;20.38;11.50;;;;;;;;;;6260947;28;20124;-66
2022/04/04 14:15:27;;;;;;;28.90;13.38;;;;;;;;;;6259183;28;20157;-66
2022/04/04 14:18:28;;;;;;;24.55;12.45;;;;;;;;;;6262385;28;20049;-68
2022/04/04 14:21:29;;;;;;;29.08;15.40;;;;;;;;;;6259091;28;20103;-67
2022/04/04 14:24:29;;;;;;;21.75;11.70;;;;;;;;;;6256422;28;20126;-63
2022/04/04 14:27:31;;;;;;;24.95;12.25;;;;;;;;;;6260356;28;20547;-65
2022/04/04 14:30:31;;;;;;;23.75;12.00;;;;;;;;;;6259911;28;20132;-67
2022/04/04 14:33:32;;;;;;;22.20;10.63;;;;;;;;;;6256605;28;20515;-66
2022/04/04 14:36:33;;;;;;;18.40;9.88;;;;;;;;;;6260300;28;20060;-66
2022/04/04 14:39:33;;;;;;;31.98;13.55;;;;;;;;;;6258543;28;20063;-68
2022/04/04 14:42:34;;;;;;;31.65;18.45;;;;;;;;;;6259447;28;20153;-66
2022/04/04 14:45:35;;;;;;;32.20;18.73;;;;;;;;;;6264213;28;20052;-68
2022/04/04 14:48:38;;;;;;;23.08;15.32;;;;;;;;;;6261497;28;20062;-66
2022/04/04 14:51:39;;;;;;;31.13;17.90;;;;;;;;;;6257235;28;20137;-66
2022/04/04 14:54:39;;;;;;;20.67;11.52;;;;;;;;;;6258284;28;20173;-62
2022/04/04 14:57:42;;;;;;;21.75;11.32;;;;;;;;;;6259048;28;20041;-62
2022/04/04 15:00:42;;;;;;;;;;;;;;;;;;6263349;28;20409;-57
2022/04/04 15:03:43;;;;;;;18.65;10.23;;;;;;;;;;6256489;28;19925;-61
2022/04/04 15:06:44;;;;;;;21.90;11.40;;;;;;;;;;6264683;28;20500;-61
2022/04/04 15:09:45;;;;;;;19.73;9.03;;;;;;;;;;6262865;28;20053;-60
2022/04/04 15:12:46;;;;;;;15.73;8.88;;;;;;;;;;6260383;28;20124;-61
2022/04/04 15:15:46;;;;;;;16.88;8.65;;;;;;;;;;6256880;28;20052;-62
2022/04/04 15:18:47;;;;;;;17.92;8.70;;;;;;;;;;6252588;28;20120;-62
2022/04/04 15:21:48;;;;;;;17.58;9.43;;;;;;;;;;6257565;28;20560;-62
2022/04/04 15:24:48;;;;;;;14.77;8.50;;;;;;;;;;6262558;28;20142;-62
2022/04/04 15:27:50;;;;;;;36.72;17.17;;;;;;;;;;6258170;28;20060;-64
2022/04/04 15:30:54;;;;;;;22.33;13.30;;;;;;;;;;6260245;28;20479;-61
2022/04/04 15:33:54;;;;;;;18.10;8.20;;;;;;;;;;6255884;28;20072;-61
2022/04/04 15:36:55;;;;;;;18.70;8.95;;;;;;;;;;6262707;28;20626;-63
2022/04/04 15:39:56;;;;;;;18.13;8.88;;;;;;;;;;6263539;28;20824;-62
2022/04/04 15:42:56;;;;;;;18.73;10.10;;;;;;;;;;6263107;28;20090;-62
2022/04/04 15:45:57;;;;;;;18.45;9.45;;;;;;;;;;6265401;28;20056;-63
2022/04/04 15:48:59;;;;;;;18.58;9.10;;;;;;;;;;6263411;28;20078;-63
2022/04/04 15:51:59;;;;;;;17.73;8.70;;;;;;;;;;6258598;28;20064;-62
2022/04/04 15:55:00;;;;;;;20.27;8.73;;;;;;;;;;6266258;28;20147;-61
2022/04/04 15:58:03;;;;;;;16.85;8.98;;;;;;;;;;6259937;28;20131;-61
2022/04/04 16:01:03;;;;;;;19.80;8.98;;;;;;;;;;6264687;28;20107;-60
2022/04/04 16:04:04;;;;;;;18.58;8.70;;;;;;;;;;6266291;28;20095;-58
2022/04/04 16:07:04;;;;;;;19.15;9.65;;;;;;;;;;6266467;28;20088;-63
2022/04/04 16:10:06;;;;;;;22.95;9.70;;;;;;;;;;6262353;28;20057;-65
2022/04/04 16:13:06;;;;;;;22.67;9.95;;;;;;;;;;6252645;28;20050;-63
2022/04/04 16:16:07;;;;;;;15.68;8.40;;;;;;;;;;6244800;28;20053;-62
2022/04/04 16:19:08;;;;;;;21.45;9.25;;;;;;;;;;6253315;28;20477;-63
2022/04/04 16:22:09;;;;;;;24.17;11.93;;;;;;;;;;6245941;28;20084;-65
2022/04/04 16:25:10;;;;;;;55.03;20.52;;;;;;;;;;6258796;28;20080;-63
2022/04/04 16:28:11;;;;;;;34.05;14.65;;;;;;;;;;6264099;28;20110;-64
2022/04/04 16:31:12;;;;;;;81.35;37.63;;;;;;;;;;6256306;28;20076;-66
2022/04/04 16:34:12;;;;;;;61.95;34.53;;;;;;;;;;6255775;28;20123;-63
2022/04/04 16:37:13;;;;;;;22.35;10.52;;;;;;;;;;6253374;28;20076;-67
2022/04/04 16:40:14;;;;;;;30.52;18.00;;;;;;;;;;6250520;28;20163;-66
2022/04/04 16:43:14;;;;;;;23.52;11.60;;;;;;;;;;6251723;28;20487;-65
2022/04/04 16:46:17;;;;;;;17.80;9.75;;;;;;;;;;6258638;28;20049;-61
2022/04/04 16:49:18;;;;;;;22.35;9.32;;;;;;;;;;6255482;28;20148;-65
2022/04/04 16:52:19;;;;;;;19.25;9.68;;;;;;;;;;6261765;28;20476;-64
2022/04/04 16:55:20;;;;;;;20.08;9.90;;;;;;;;;;6259915;28;20567;-61
2022/04/04 16:58:23;;;;;;;18.38;9.95;;;;;;;;;;6255928;28;20390;-66
2022/04/04 17:01:24;;;;;;;23.08;9.98;;;;;;;;;;6253980;28;20048;-67
2022/04/04 17:04:25;;;;;;;24.25;9.35;;;;;;;;;;6256389;28;20052;-65
2022/04/04 17:07:25;;;;;;;27.75;11.10;;;;;;;;;;6256879;28;20556;-64
2022/04/04 17:10:26;;;;;;;20.35;10.05;;;;;;;;;;6255409;28;20763;-61
2022/04/04 17:13:27;;;;;;;18.60;8.98;;;;;;;;;;6257504;28;20381;-64
2022/04/04 17:16:28;;;;;;;17.88;8.93;;;;;;;;;;6253762;28;20391;-64
2022/04/04 17:19:29;;;;;;;20.10;10.00;;;;;;;;;;6252606;28;20136;-61
2022/04/04 17:22:29;;;;;;;17.52;8.32;;;;;;;;;;6257163;28;20049;-63
2022/04/04 17:25:31;;;;;;;19.05;9.27;;;;;;;;;;6253769;28;20052;-64
2022/04/04 17:28:32;;;;;;;21.35;9.43;;;;;;;;;;6247856;28;20073;-61
2022/04/04 17:31:33;;;;;;;19.05;10.25;;;;;;;;;;6256963;28;20051;-65
2022/04/04 17:34:34;;;;;;;18.77;9.57;;;;;;;;;;6251604;28;20183;-63
2022/04/04 17:37:35;;;;;;;27.10;12.65;;;;;;;;;;6253470;28;20053;-63
2022/04/04 17:40:36;;;;;;;29.73;15.10;;;;;;;;;;6255065;28;20079;-63
2022/04/04 17:43:36;;;;;;;31.17;16.90;;;;;;;;;;6254778;28;20424;-60
2022/04/04 17:46:37;;;;;;;24.13;13.68;;;;;;;;;;6258581;28;20051;-64
2022/04/04 17:49:38;;;;;;;21.05;9.95;;;;;;;;;;6250361;28;20124;-65